CheckWX is a tool to help pilots better visualize weather data.  It is not intended as a substitute for an official pre-flight weather briefing.

02:40:49 UTC

KCFJ METAR
Crawfordsville Municipal Airport
Crawfordsville, Indiana, USA
Current

26 mins ago

KCFJ 250215Z AUTO 00000KT 10SM RA BKN070 OVC080 19/18 A3000 RMK AO2 P0001 T01880175
Observed
May-25 @ 02:15 UTC
Visibility
Flight Rules
VFR
Conditions
Rain
Cloud Levels
  • Broken at 7,000' AGL
  • Overcast at 8,000' AGL
Temperature
19°C / 66°F
Dewpoint
18°C / 64°F
Humidity
94%
Altimeter
30" Hg
Pressure
1015.92 hPa
Current Rain
0.01"
Previous

46 mins ago

KCFJ 250155Z AUTO 15003KT 10SM -RA SCT048 BKN070 BKN120 19/17 A3000 RMK AO2 P0001 T01900172
Observed
May-25 @ 01:55 UTC
Wind
  • 150° at 3 KTS
Visibility
Flight Rules
VFR
Conditions
Light Rain
Cloud Levels
  • Scattered at 4,800' AGL
  • Broken at 7,000' AGL
  • Broken at 12,000' AGL
Temperature
19°C / 66°F
Dewpoint
17°C / 63°F
Humidity
88%
Altimeter
30" Hg
Pressure
1015.92 hPa
Current Rain
0.01"
Previous

1 hour ago

KCFJ 250135Z AUTO 15004KT 10SM -RA SCT049 SCT060 SCT120 19/17 A2999 RMK AO2 P0001 T01930171
Observed
May-25 @ 01:35 UTC
Wind
  • 150° at 4 KTS
Visibility
Flight Rules
VFR
Conditions
Light Rain
Cloud Levels
  • Scattered at 4,900' AGL
  • Scattered at 6,000' AGL
  • Scattered at 12,000' AGL
Temperature
19°C / 66°F
Dewpoint
17°C / 63°F
Humidity
88%
Altimeter
29.99" Hg
Pressure
1015.62 hPa
Current Rain
0.01"